Welcome to the updated website with new and more accurate equipment. Established 2007


Active alerts


No alerts

Mount Mesnard more information Mount Mesnard


Lower Harbor more information Lower Harbor


Visit our other weather sites:

Template documentation
and downloads

And another site


CBI


Nearby METAR Reports

   
KSAW - Sawyer, Michigan
Updated: 16-08-2017 10:47
Partly Cloudy  
Partly Cloudy  
   Wind: Calm
Wind: Calm
Temperature: 57.2°F
Dew Point: 57.2°F
Humidity: 100%
Barometer: 30.09 inHg
Clouds: Partly Cloudy
Visibility: 10 mi
Cloud details: Partly Cloudy 122 m
KSAW 161447Z 00000KT 10SM SCT004 14/14 A3009
KESC - Escanaba, Michigan
Updated: 16-08-2017 10:56
Few Clouds  
Few Clouds  
   Wind: ENE 5.8 mph
Wind: ENE 5.8 mph
Temperature: 64.4°F
Dew Point: 60.8°F
Humidity: 88%
Barometer: 30.07 inHg
Clouds: Few Clouds
Visibility: 10 mi
Cloud details: Few Clouds 366 m
KESC 161456Z AUTO 07005KT 10SM FEW012 18/16 A3007 RMK AO2 SLP203 T01830156 58007
KIMT - Iron Mountain, MI
Updated: 16-08-2017 10:54
Overcast  
Overcast  
   Wind: Calm
Wind: Calm
Temperature: 60.8°F
Dew Point: 55.4°F
Humidity: 83%
Barometer: 30.07 inHg
Clouds: Overcast
Visibility: 9 mi
Cloud details: Overcast 152 m
KIMT 161454Z AUTO 00000KT 9SM OVC005 16/13 A3007 RMK AO2 SLP182 T01610128 57006
KGRB - Green Bay, WI
Updated: 16-08-2017 10:53
Mostly Cloudy  
Mostly Cloudy  
   Wind: NE 9.2 mph
Wind: NE 9.2 mph
Temperature: 71.6°F
Dew Point: 64.4°F
Humidity: 78%
Barometer: 30.04 inHg
Clouds: Mostly Cloudy
Visibility: 10 mi
Cloud details: Mostly Cloudy 549 m
KGRB 161453Z 05008KT 10SM BKN018 22/18 A3004 RMK AO2 SLP171 T02220178 58005
KDET - Detroit, MI
Updated: 16-08-2017 10:53
Clear  
Clear  
   Wind: SE 9.2 mph
Wind: SE 9.2 mph
Temperature: 73.4°F
Dew Point: 57.2°F
Humidity: 57%
Barometer: 30.09 inHg
Clouds: Clear
Visibility: 10 mi
Cloud details: Clear
KDET 161453Z 13008KT 10SM CLR 23/14 A3009 RMK AO2 SLP186 T02330139 53002
 

Script developed by  Saratoga-weather.org Adapted for the template by  Weerstation Leuven

You find our weather info also at:

Weather Underground

Midwestern Weather Network

WeatherlinkIP

Citizen Weather Observer Program (CWOP)

Equipment we use:

Weather-station
Davis VP2

Weather-program
Davis Weatherlink.Com

Davis VP2

Davis Weatherlink.Com